createdAt,value
2017-05-07T00:01:53.208Z,11.60
2017-05-07T00:04:21.523Z,11.60
2017-05-07T00:06:49.878Z,11.60
2017-05-07T00:09:18.144Z,11.50
2017-05-07T00:11:46.539Z,11.50
2017-05-07T00:14:14.815Z,11.50
2017-05-07T00:16:43.092Z,11.50
2017-05-07T00:19:11.465Z,11.40
2017-05-07T00:21:39.739Z,11.40
2017-05-07T00:24:08.012Z,11.30
2017-05-07T00:26:36.307Z,11.30
2017-05-07T00:29:04.599Z,11.30
2017-05-07T00:31:32.951Z,11.30
2017-05-07T00:34:01.331Z,11.20
2017-05-07T00:36:29.611Z,11.20
2017-05-07T00:38:57.902Z,11.20
2017-05-07T00:41:26.263Z,11.20
2017-05-07T00:43:54.637Z,11.10
2017-05-07T00:46:22.908Z,11.10
2017-05-07T00:48:51.170Z,11.10
2017-05-07T00:51:19.777Z,11.10
2017-05-07T00:53:48.042Z,11.00
2017-05-07T00:56:16.337Z,11.00
2017-05-07T00:58:45.421Z,11.00
2017-05-07T01:01:13.686Z,10.90
2017-05-07T01:03:41.951Z,10.90
2017-05-07T01:06:10.359Z,10.90
2017-05-07T01:08:38.631Z,10.80
2017-05-07T01:11:06.894Z,10.90
2017-05-07T01:13:35.203Z,10.80
2017-05-07T01:16:03.467Z,10.80
2017-05-07T01:18:31.757Z,10.80
2017-05-07T01:21:00.058Z,10.70
2017-05-07T01:23:28.323Z,10.70
2017-05-07T01:25:56.674Z,10.70
2017-05-07T01:28:25.263Z,10.70
2017-05-07T01:30:53.530Z,10.60
2017-05-07T01:33:21.827Z,10.60
2017-05-07T01:35:50.130Z,10.60
2017-05-07T01:38:18.396Z,10.60
2017-05-07T01:40:46.691Z,10.50
2017-05-07T01:43:15.022Z,10.50
2017-05-07T01:45:43.447Z,10.50
2017-05-07T01:48:11.779Z,10.50
2017-05-07T01:50:40.364Z,10.40
2017-05-07T01:53:08.640Z,10.40
2017-05-07T01:55:40.734Z,10.40
2017-05-07T01:58:09.054Z,10.40
2017-05-07T02:00:37.319Z,10.30
2017-05-07T02:03:06.323Z,10.20
2017-05-07T02:05:34.624Z,10.30
2017-05-07T02:08:03.023Z,10.20
2017-05-07T02:10:31.286Z,10.20
2017-05-07T02:12:59.687Z,10.20
2017-05-07T02:15:27.956Z,10.20
2017-05-07T02:17:56.226Z,10.20
2017-05-07T02:20:24.523Z,10.20
2017-05-07T02:22:52.875Z,10.10
2017-05-07T02:25:21.250Z,10.10
2017-05-07T02:27:49.942Z,10.10
2017-05-07T02:30:18.214Z,10.10
2017-05-07T02:32:46.493Z,10.00
2017-05-07T02:35:15.183Z,10.00
2017-05-07T02:37:43.450Z,10.00
2017-05-07T02:40:11.733Z,10.00
2017-05-07T02:42:40.418Z,9.90
2017-05-07T02:45:08.676Z,9.90
2017-05-07T02:47:36.973Z,9.90
2017-05-07T02:50:05.277Z,9.90
2017-05-07T02:52:33.626Z,9.80
2017-05-07T02:55:01.886Z,9.80
2017-05-07T02:57:30.179Z,9.80
2017-05-07T02:59:58.445Z,9.80
2017-05-07T03:02:26.702Z,9.80
2017-05-07T03:04:55.830Z,9.70
2017-05-07T03:07:24.211Z,9.70
2017-05-07T03:09:52.474Z,9.70
2017-05-07T03:12:20.858Z,9.70
2017-05-07T03:14:49.143Z,9.60
2017-05-07T03:17:17.418Z,9.60
2017-05-07T03:19:45.894Z,9.50
2017-05-07T03:22:14.163Z,9.60
2017-05-07T03:24:42.424Z,9.50
2017-05-07T03:27:10.711Z,9.40
2017-05-07T03:29:39.107Z,9.50
2017-05-07T03:32:07.378Z,9.40
2017-05-07T03:34:35.634Z,9.40
2017-05-07T03:37:04.242Z,9.30
2017-05-07T03:39:32.618Z,9.40
2017-05-07T03:42:00.879Z,9.30
2017-05-07T03:44:29.391Z,9.30
2017-05-07T03:46:57.650Z,9.30
2017-05-07T03:49:25.935Z,9.40
2017-05-07T03:51:54.622Z,9.30
2017-05-07T03:54:22.874Z,9.40
2017-05-07T03:56:51.131Z,9.40
2017-05-07T03:59:20.266Z,9.30
2017-05-07T04:01:48.521Z,9.40
2017-05-07T04:04:16.783Z,9.30
2017-05-07T04:06:45.818Z,9.30
2017-05-07T04:09:14.095Z,9.30
2017-05-07T04:11:42.474Z,9.30
2017-05-07T04:14:11.159Z,9.30
2017-05-07T04:16:39.440Z,9.30
2017-05-07T04:19:07.714Z,9.30
2017-05-07T04:21:36.006Z,9.30
2017-05-07T04:24:04.371Z,9.30
2017-05-07T04:26:32.842Z,9.30
2017-05-07T04:29:01.099Z,9.30
2017-05-07T04:31:29.403Z,9.40
2017-05-07T04:33:57.758Z,9.40
2017-05-07T04:36:26.015Z,9.40
2017-05-07T04:38:55.158Z,9.40
2017-05-07T04:41:23.530Z,9.40
2017-05-07T04:43:51.814Z,9.50
2017-05-07T04:46:20.183Z,9.40
2017-05-07T04:48:48.553Z,9.50
2017-05-07T04:51:16.814Z,9.60
2017-05-07T04:53:45.178Z,9.50
2017-05-07T04:56:13.533Z,9.50
2017-05-07T04:58:41.858Z,9.60
2017-05-07T05:01:10.119Z,9.70
2017-05-07T05:03:38.523Z,9.70
2017-05-07T05:06:06.782Z,9.70
2017-05-07T05:08:35.102Z,9.80
2017-05-07T05:11:03.406Z,9.90
2017-05-07T05:13:31.764Z,10.00
2017-05-07T05:16:00.135Z,10.00
2017-05-07T05:18:28.530Z,10.20
2017-05-07T05:21:11.746Z,10.30
2017-05-07T05:27:00.223Z,10.50
2017-05-07T05:29:43.446Z,10.60
2017-05-07T05:32:11.741Z,10.70
2017-05-07T05:34:40.751Z,10.70
2017-05-07T05:37:09.045Z,10.80
2017-05-07T05:39:37.355Z,11.00
2017-05-07T05:42:05.642Z,11.00
2017-05-07T05:44:33.910Z,11.00
2017-05-07T05:47:02.555Z,11.20
2017-05-07T05:49:30.811Z,11.40
2017-05-07T05:51:59.174Z,11.60
2017-05-07T05:54:27.470Z,11.80
2017-05-07T05:56:55.830Z,12.00
2017-05-07T05:59:24.127Z,12.00
2017-05-07T06:01:52.487Z,12.00
2017-05-07T06:04:20.750Z,12.10
2017-05-07T06:06:49.086Z,12.00
2017-05-07T06:09:17.351Z,12.10
2017-05-07T06:11:45.693Z,12.00
2017-05-07T06:14:14.278Z,11.90
2017-05-07T06:16:42.541Z,12.10
2017-05-07T06:19:10.834Z,11.80
2017-05-07T06:21:39.142Z,11.70
2017-05-07T06:24:07.406Z,11.90
2017-05-07T06:26:35.669Z,12.10
2017-05-07T06:29:04.043Z,12.40
2017-05-07T06:31:32.311Z,12.60
2017-05-07T06:34:00.602Z,12.40
2017-05-07T06:36:29.282Z,12.30
2017-05-07T06:38:57.550Z,12.40
2017-05-07T06:41:25.834Z,12.40
2017-05-07T06:43:54.216Z,12.60
2017-05-07T06:46:22.482Z,12.90
2017-05-07T06:48:50.770Z,12.90
2017-05-07T06:51:19.150Z,12.90
2017-05-07T06:53:47.419Z,13.20
2017-05-07T06:56:15.698Z,13.50
2017-05-07T06:58:44.079Z,13.70
2017-05-07T07:01:12.457Z,14.00
2017-05-07T07:03:40.734Z,14.20
2017-05-07T07:06:09.423Z,14.20
2017-05-07T07:08:37.687Z,14.10
2017-05-07T07:11:05.958Z,14.50
2017-05-07T07:13:34.679Z,14.60
2017-05-07T07:16:03.042Z,14.70
2017-05-07T07:18:31.333Z,14.20
2017-05-07T07:20:59.646Z,14.30
2017-05-07T07:23:28.698Z,14.50
2017-05-07T07:25:56.967Z,14.70
2017-05-07T07:28:25.550Z,15.00
2017-05-07T07:30:53.826Z,14.90
2017-05-07T07:33:22.090Z,15.10
2017-05-07T07:35:50.382Z,14.40
2017-05-07T07:38:18.651Z,14.40
2017-05-07T07:40:46.931Z,14.40
2017-05-07T07:43:15.370Z,14.40
2017-05-07T07:45:44.407Z,14.10
2017-05-07T07:48:12.670Z,14.20
2017-05-07T07:50:40.986Z,13.80
2017-05-07T07:53:09.343Z,13.60
2017-05-07T07:55:37.605Z,13.70
2017-05-07T07:58:05.914Z,13.60
2017-05-07T08:00:34.186Z,13.60
2017-05-07T08:03:02.455Z,13.70
2017-05-07T08:05:31.134Z,13.80
2017-05-07T08:07:59.398Z,13.90
2017-05-07T08:10:27.686Z,14.30
2017-05-07T08:12:55.982Z,14.70
2017-05-07T08:15:24.342Z,14.80
2017-05-07T08:17:52.642Z,14.60
2017-05-07T08:20:20.986Z,14.70
2017-05-07T08:22:49.367Z,14.70
2017-05-07T08:25:17.852Z,14.50
2017-05-07T08:27:46.109Z,14.40
2017-05-07T08:30:14.373Z,14.30
2017-05-07T08:32:42.778Z,14.20
2017-05-07T08:35:11.043Z,14.30
2017-05-07T08:37:39.333Z,14.40
2017-05-07T08:40:07.917Z,14.70
2017-05-07T08:42:36.193Z,15.00
2017-05-07T08:45:04.458Z,15.40
2017-05-07T08:47:32.852Z,15.80
2017-05-07T08:50:01.130Z,16.20
2017-05-07T08:52:29.421Z,16.40
2017-05-07T08:54:57.738Z,16.50
2017-05-07T08:57:26.747Z,16.70
2017-05-07T08:59:55.054Z,16.50
2017-05-07T09:02:23.434Z,16.70
2017-05-07T09:04:51.706Z,16.50
2017-05-07T09:07:21.015Z,16.20
2017-05-07T09:09:49.490Z,16.20
2017-05-07T09:12:33.426Z,16.10
2017-05-07T09:15:15.391Z,16.00
2017-05-07T09:17:53.845Z,15.80
2017-05-07T09:20:22.142Z,16.30
2017-05-07T09:22:50.612Z,16.80
2017-05-07T09:25:18.886Z,16.90
2017-05-07T09:27:47.195Z,17.00
2017-05-07T09:30:15.466Z,17.00
2017-05-07T09:32:43.830Z,17.30
2017-05-07T09:35:12.305Z,17.50
2017-05-07T09:37:40.575Z,17.00
2017-05-07T09:40:08.846Z,16.80
2017-05-07T09:42:37.455Z,16.90
2017-05-07T09:45:05.826Z,16.80
2017-05-07T09:47:34.095Z,17.10
2017-05-07T09:50:02.483Z,17.20
2017-05-07T09:52:30.755Z,17.60
2017-05-07T09:54:59.026Z,17.30
2017-05-07T09:57:27.343Z,16.90
2017-05-07T09:59:55.615Z,17.30
2017-05-07T10:02:24.002Z,17.80
2017-05-07T10:04:52.350Z,18.20
2017-05-07T10:07:20.627Z,18.30
2017-05-07T10:09:48.902Z,18.70
2017-05-07T10:12:17.231Z,18.70
2017-05-07T10:14:46.254Z,18.60
2017-05-07T10:17:14.550Z,18.70
2017-05-07T10:19:42.871Z,18.70
2017-05-07T10:22:11.888Z,18.20
2017-05-07T10:24:40.202Z,18.20
2017-05-07T10:27:08.506Z,18.20
2017-05-07T10:29:36.778Z,17.90
2017-05-07T10:32:05.135Z,18.00
2017-05-07T10:34:36.072Z,18.10
2017-05-07T10:37:04.350Z,18.20
2017-05-07T10:39:32.733Z,18.10
2017-05-07T10:42:01.428Z,17.90
2017-05-07T10:44:29.797Z,17.50
2017-05-07T10:46:58.169Z,17.30
2017-05-07T10:49:26.650Z,17.00
2017-05-07T10:51:54.920Z,16.90
2017-05-07T10:54:23.191Z,17.20
2017-05-07T10:56:51.582Z,17.20
2017-05-07T10:59:19.849Z,17.30
2017-05-07T11:01:48.143Z,17.50
2017-05-07T11:04:16.514Z,17.50
2017-05-07T11:06:44.797Z,17.50
2017-05-07T11:09:13.074Z,17.90
2017-05-07T11:11:41.450Z,17.90
2017-05-07T11:14:09.827Z,17.70
2017-05-07T11:16:38.122Z,17.40
2017-05-07T11:19:06.592Z,17.50
2017-05-07T11:21:34.866Z,17.60
2017-05-07T11:24:03.194Z,17.60
2017-05-07T11:26:32.248Z,17.40
2017-05-07T11:29:00.527Z,17.70
2017-05-07T11:31:28.895Z,17.80
2017-05-07T11:33:57.167Z,17.70
2017-05-07T11:36:25.653Z,17.80
2017-05-07T11:38:54.025Z,17.90
2017-05-07T11:41:22.303Z,18.00
2017-05-07T11:43:50.609Z,18.00
2017-05-07T11:46:18.882Z,18.10
2017-05-07T11:48:47.197Z,18.20
2017-05-07T11:51:16.282Z,18.10
2017-05-07T11:53:45.298Z,18.00
2017-05-07T11:56:13.707Z,18.20
2017-05-07T11:58:42.094Z,18.10
2017-05-07T12:01:10.370Z,18.30
2017-05-07T12:03:38.742Z,18.00
2017-05-07T12:06:07.026Z,18.10
2017-05-07T12:08:35.397Z,18.30
2017-05-07T12:11:03.710Z,18.40
2017-05-07T12:13:32.054Z,18.20
2017-05-07T12:16:00.326Z,17.90
2017-05-07T12:18:29.015Z,18.00
2017-05-07T12:20:57.286Z,18.20
2017-05-07T12:23:25.574Z,18.00
2017-05-07T12:25:54.154Z,17.90
2017-05-07T12:28:22.421Z,17.70
2017-05-07T12:30:50.694Z,17.50
2017-05-07T12:33:19.084Z,17.50
2017-05-07T12:35:47.673Z,17.90
2017-05-07T12:38:15.970Z,18.10
2017-05-07T12:40:44.330Z,18.40
2017-05-07T12:43:12.911Z,18.40
2017-05-07T12:45:41.187Z,18.50
2017-05-07T12:48:09.458Z,18.80
2017-05-07T12:50:37.786Z,18.90
2017-05-07T12:53:06.803Z,18.10
2017-05-07T12:55:35.087Z,18.20
2017-05-07T12:58:03.489Z,18.40
2017-05-07T13:00:31.814Z,18.60
2017-05-07T13:03:00.830Z,18.70
2017-05-07T13:05:29.553Z,18.60
2017-05-07T13:07:57.829Z,19.00
2017-05-07T13:10:26.207Z,19.00
2017-05-07T13:12:54.530Z,19.10
2017-05-07T13:15:23.545Z,18.80
2017-05-07T13:17:51.856Z,19.00
2017-05-07T13:20:20.555Z,19.20
2017-05-07T13:22:48.831Z,19.40
2017-05-07T13:25:17.198Z,19.40
2017-05-07T13:27:45.474Z,19.50
2017-05-07T13:30:13.749Z,19.50
2017-05-07T13:32:42.133Z,19.50
2017-05-07T13:35:10.406Z,19.40
2017-05-07T13:37:38.677Z,19.10
2017-05-07T13:40:07.015Z,19.10
2017-05-07T13:42:36.281Z,19.30
2017-05-07T13:45:04.630Z,19.50
2017-05-07T13:47:33.232Z,19.60
2017-05-07T13:50:01.600Z,19.70
2017-05-07T13:52:29.939Z,19.60
2017-05-07T13:54:59.196Z,19.30
2017-05-07T13:57:27.652Z,19.10
2017-05-07T13:59:55.942Z,18.60
2017-05-07T14:02:24.271Z,18.60
2017-05-07T14:04:53.309Z,18.40
2017-05-07T14:07:21.606Z,18.20
2017-05-07T14:09:49.982Z,18.10
2017-05-07T14:12:18.289Z,18.00
2017-05-07T14:14:47.386Z,17.80
2017-05-07T14:17:16.964Z,17.80
2017-05-07T14:19:45.549Z,17.70
2017-05-07T14:22:14.234Z,17.40
2017-05-07T14:24:43.125Z,17.10
2017-05-07T14:27:12.221Z,17.10
2017-05-07T14:29:41.624Z,17.20
2017-05-07T14:32:10.406Z,16.90
2017-05-07T14:34:39.201Z,16.90
2017-05-07T14:37:08.506Z,17.00
2017-05-07T14:39:38.930Z,16.90
2017-05-07T14:42:07.411Z,16.90
2017-05-07T14:44:35.892Z,17.00
2017-05-07T14:47:04.887Z,17.00
2017-05-07T14:49:34.127Z,16.90
2017-05-07T14:52:03.386Z,17.10
2017-05-07T14:54:32.379Z,17.20
2017-05-07T14:57:02.032Z,17.30
2017-05-07T14:59:30.468Z,17.20
2017-05-07T15:01:59.225Z,17.10
2017-05-07T15:04:27.739Z,17.20
2017-05-07T15:06:56.220Z,17.20
2017-05-07T15:09:25.212Z,17.00
2017-05-07T15:11:53.798Z,17.00
2017-05-07T15:14:22.174Z,16.90
2017-05-07T15:16:50.666Z,17.10
2017-05-07T15:19:19.037Z,17.20
2017-05-07T15:21:47.416Z,17.20
2017-05-07T15:24:16.001Z,17.10
2017-05-07T15:26:45.200Z,17.40
2017-05-07T15:29:14.705Z,17.60
2017-05-07T15:31:43.594Z,17.50
2017-05-07T15:34:12.143Z,17.80
2017-05-07T15:36:40.789Z,17.90
2017-05-07T15:39:09.349Z,17.90
2017-05-07T15:41:37.830Z,18.00
2017-05-07T15:44:06.516Z,17.80
2017-05-07T15:46:35.034Z,17.80
2017-05-07T15:49:03.582Z,17.60
2017-05-07T15:51:32.269Z,17.60
2017-05-07T15:54:01.569Z,17.40
2017-05-07T15:56:30.255Z,17.60
2017-05-07T15:58:59.063Z,17.40
2017-05-07T16:01:27.410Z,17.40
2017-05-07T16:03:55.706Z,17.60
2017-05-07T16:06:24.062Z,17.60
2017-05-07T16:08:52.338Z,17.60
2017-05-07T16:11:20.619Z,17.60
2017-05-07T16:13:48.998Z,17.50
2017-05-07T16:16:22.977Z,17.30
2017-05-07T16:22:12.183Z,17.00
2017-05-07T16:24:57.943Z,17.10
2017-05-07T16:27:41.122Z,17.20
2017-05-07T16:30:16.337Z,17.10
2017-05-07T16:32:45.640Z,17.10
2017-05-07T16:35:13.914Z,17.10
2017-05-07T16:37:42.226Z,17.10
2017-05-07T16:40:10.541Z,17.10
2017-05-07T16:42:38.818Z,17.10
2017-05-07T16:45:07.085Z,16.90
2017-05-07T16:47:36.218Z,16.80
2017-05-07T16:50:04.493Z,16.80
2017-05-07T16:52:32.770Z,16.70
2017-05-07T16:55:01.086Z,16.70
2017-05-07T16:57:29.354Z,16.60
2017-05-07T16:59:57.626Z,16.60
2017-05-07T17:02:25.937Z,16.50
2017-05-07T17:04:54.946Z,16.60
2017-05-07T17:07:23.254Z,16.40
2017-05-07T17:09:51.735Z,16.30
2017-05-07T17:12:20.009Z,16.40
2017-05-07T17:14:48.287Z,16.30
2017-05-07T17:17:16.584Z,16.30
2017-05-07T17:19:44.941Z,16.30
2017-05-07T17:22:13.210Z,16.30
2017-05-07T17:24:44.286Z,16.30
2017-05-07T17:27:12.558Z,16.30
2017-05-07T17:29:41.565Z,16.20
2017-05-07T17:32:09.883Z,16.10
2017-05-07T17:34:38.157Z,16.10
2017-05-07T17:37:06.428Z,16.10
2017-05-07T17:39:34.726Z,16.10
2017-05-07T17:42:02.998Z,16.10
2017-05-07T17:44:31.310Z,16.00
2017-05-07T17:46:59.610Z,16.00
2017-05-07T17:49:28.051Z,16.00
2017-05-07T17:51:56.386Z,15.90
2017-05-07T17:54:24.674Z,16.00
2017-05-07T17:56:53.057Z,16.00
2017-05-07T17:59:21.742Z,15.90
2017-05-07T18:01:50.119Z,15.90
2017-05-07T18:04:18.402Z,15.90
2017-05-07T18:06:46.981Z,15.90
2017-05-07T18:09:15.270Z,15.90
2017-05-07T18:11:43.543Z,15.80
2017-05-07T18:14:12.391Z,15.70
2017-05-07T18:16:41.397Z,15.50
2017-05-07T18:19:09.697Z,15.40
2017-05-07T18:21:38.277Z,15.50
2017-05-07T18:24:06.542Z,15.40
2017-05-07T18:26:34.809Z,15.40
2017-05-07T18:29:03.211Z,15.30
2017-05-07T18:31:31.502Z,15.30
2017-05-07T18:33:59.866Z,15.40
2017-05-07T18:36:28.174Z,15.30
2017-05-07T18:38:56.526Z,15.30
2017-05-07T18:41:24.789Z,15.30
2017-05-07T18:43:53.502Z,15.30
2017-05-07T18:46:21.841Z,15.20
2017-05-07T18:48:50.124Z,15.20
2017-05-07T18:51:18.514Z,15.20
2017-05-07T18:53:47.542Z,15.00
2017-05-07T18:56:15.818Z,15.00
2017-05-07T18:58:44.413Z,15.00
2017-05-07T19:01:12.678Z,15.00
2017-05-07T19:03:40.958Z,15.00
2017-05-07T19:06:09.253Z,14.90
2017-05-07T19:08:37.611Z,14.80
2017-05-07T19:11:05.992Z,14.80
2017-05-07T19:13:34.291Z,14.80
2017-05-07T19:16:02.561Z,14.70
2017-05-07T19:18:30.850Z,14.70
2017-05-07T19:20:59.205Z,14.60
2017-05-07T19:23:27.471Z,14.60
2017-05-07T19:25:55.858Z,14.60
2017-05-07T19:28:24.170Z,14.60
2017-05-07T19:30:52.438Z,14.50
2017-05-07T19:33:20.703Z,14.50
2017-05-07T19:35:48.995Z,14.60
2017-05-07T19:38:17.342Z,14.40
2017-05-07T19:40:45.606Z,14.50
2017-05-07T19:43:13.942Z,14.50
2017-05-07T19:45:42.318Z,14.40
2017-05-07T19:48:10.583Z,14.40
2017-05-07T19:50:38.991Z,14.40
2017-05-07T19:53:07.262Z,14.30
2017-05-07T19:55:35.527Z,14.30
2017-05-07T19:58:04.623Z,14.30
2017-05-07T20:00:32.898Z,14.30
2017-05-07T20:03:01.194Z,14.30
2017-05-07T20:05:29.785Z,14.30
2017-05-07T20:07:58.131Z,14.20
2017-05-07T20:10:26.506Z,14.20
2017-05-07T20:12:54.802Z,14.20
2017-05-07T20:15:23.094Z,14.10
2017-05-07T20:17:51.455Z,14.10
2017-05-07T20:20:19.746Z,14.10
2017-05-07T20:22:48.006Z,14.10
2017-05-07T20:25:16.358Z,14.00
2017-05-07T20:27:45.494Z,14.00
2017-05-07T20:30:13.762Z,14.00
2017-05-07T20:32:42.042Z,14.00
2017-05-07T20:35:10.355Z,13.90
2017-05-07T20:37:38.626Z,13.80
2017-05-07T20:40:06.891Z,13.80
2017-05-07T20:42:35.255Z,13.70
2017-05-07T20:45:03.514Z,13.80
2017-05-07T20:47:31.915Z,13.70
2017-05-07T20:50:00.187Z,13.60
2017-05-07T20:52:28.562Z,13.60
2017-05-07T20:54:56.841Z,13.40
2017-05-07T20:57:25.118Z,13.40
2017-05-07T20:59:53.487Z,13.30
2017-05-07T21:02:21.754Z,13.30
2017-05-07T21:04:50.041Z,13.20
2017-05-07T21:07:18.517Z,13.20
2017-05-07T21:09:46.820Z,13.10
2017-05-07T21:12:15.197Z,12.90
2017-05-07T21:14:43.499Z,12.80
2017-05-07T21:17:12.510Z,12.80
2017-05-07T21:19:41.529Z,12.70
2017-05-07T21:22:09.919Z,12.70
2017-05-07T21:24:38.197Z,12.70
2017-05-07T21:27:06.476Z,12.60
2017-05-07T21:29:34.766Z,12.50
2017-05-07T21:32:03.034Z,12.40
2017-05-07T21:34:31.303Z,12.30
2017-05-07T21:36:59.599Z,12.20
2017-05-07T21:39:27.958Z,12.10
2017-05-07T21:41:56.247Z,12.10
2017-05-07T21:44:24.618Z,12.00
2017-05-07T21:46:52.881Z,11.90
2017-05-07T21:49:21.166Z,11.90
2017-05-07T21:51:49.466Z,11.80
2017-05-07T21:54:18.471Z,11.60
2017-05-07T21:56:47.502Z,11.50
2017-05-07T21:59:15.814Z,11.60
2017-05-07T22:01:44.079Z,11.60
2017-05-07T22:04:12.347Z,11.50
2017-05-07T22:06:40.694Z,11.40
2017-05-07T22:09:09.074Z,11.30
2017-05-07T22:11:37.336Z,11.30
2017-05-07T22:14:05.730Z,11.30
2017-05-07T22:16:34.862Z,11.20
2017-05-07T22:19:03.147Z,11.10
2017-05-07T22:21:31.517Z,11.00
2017-05-07T22:23:59.897Z,10.90
2017-05-07T22:26:28.160Z,10.80
2017-05-07T22:28:57.882Z,10.80
2017-05-07T22:31:26.162Z,10.80
2017-05-07T22:33:54.427Z,10.70
2017-05-07T22:36:22.818Z,10.70
2017-05-07T22:38:51.087Z,10.60
2017-05-07T22:41:19.378Z,10.50
2017-05-07T22:43:47.686Z,10.50
2017-05-07T22:46:15.961Z,10.50
2017-05-07T22:48:44.306Z,10.40
2017-05-07T22:51:12.994Z,10.40
2017-05-07T22:53:41.293Z,10.40
2017-05-07T22:56:09.554Z,10.20
2017-05-07T22:58:37.874Z,10.10
2017-05-07T23:01:06.221Z,10.10
2017-05-07T23:03:34.494Z,10.00
2017-05-07T23:06:02.853Z,10.00
2017-05-07T23:08:31.114Z,9.90
2017-05-07T23:10:59.402Z,9.90
2017-05-07T23:13:27.995Z,9.90
2017-05-07T23:15:56.270Z,9.70
2017-05-07T23:18:24.550Z,9.70
2017-05-07T23:20:52.852Z,9.50
2017-05-07T23:23:21.215Z,9.50
2017-05-07T23:25:49.582Z,9.40
2017-05-07T23:28:17.896Z,9.40
2017-05-07T23:30:46.235Z,9.30
2017-05-07T23:33:14.514Z,9.30
2017-05-07T23:35:43.098Z,9.30
2017-05-07T23:38:11.375Z,9.30
2017-05-07T23:40:39.647Z,9.20
2017-05-07T23:43:08.135Z,9.20
2017-05-07T23:45:36.414Z,9.30
2017-05-07T23:48:04.674Z,9.20
2017-05-07T23:50:33.066Z,9.10
2017-05-07T23:53:01.339Z,8.90
2017-05-07T23:55:29.735Z,8.90
2017-05-07T23:57:58.102Z,8.90
